createdAt,value
2023-02-18T00:00:29.182Z,89.06
2023-02-18T00:01:36.387Z,89.10
2023-02-18T00:02:39.665Z,89.04
2023-02-18T00:03:44.001Z,89.06
2023-02-18T00:04:48.105Z,89.09
2023-02-18T00:05:52.325Z,89.09
2023-02-18T00:06:56.564Z,89.14
2023-02-18T00:08:00.854Z,89.12
2023-02-18T00:09:05.057Z,89.11
2023-02-18T00:10:09.260Z,89.14
2023-02-18T00:11:13.476Z,89.15
2023-02-18T00:12:17.705Z,89.17
2023-02-18T00:13:22.006Z,89.20
2023-02-18T00:14:26.249Z,89.19
2023-02-18T00:15:30.550Z,89.24
2023-02-18T00:16:34.734Z,89.30
2023-02-18T00:17:38.873Z,89.38
2023-02-18T00:18:43.110Z,89.32
2023-02-18T00:19:47.302Z,89.27
2023-02-18T00:20:51.605Z,89.25
2023-02-18T00:21:55.615Z,89.19
2023-02-18T00:22:59.907Z,89.14
2023-02-18T00:24:04.105Z,89.16
2023-02-18T00:25:08.453Z,89.14
2023-02-18T00:26:12.695Z,89.16
2023-02-18T00:27:16.756Z,89.17
2023-02-18T00:28:21.078Z,89.15
2023-02-18T00:29:25.273Z,88.99
2023-02-18T00:30:29.513Z,88.88
2023-02-18T00:31:33.879Z,88.86
2023-02-18T00:32:37.854Z,88.85
2023-02-18T00:33:42.256Z,88.79
2023-02-18T00:34:46.501Z,88.79
2023-02-18T00:35:50.675Z,88.76
2023-02-18T00:36:54.882Z,88.80
2023-02-18T00:37:59.096Z,88.81
2023-02-18T00:39:03.322Z,88.83
2023-02-18T00:40:07.608Z,88.85
2023-02-18T00:41:11.877Z,88.88
2023-02-18T00:42:16.168Z,88.94
2023-02-18T00:43:20.423Z,88.95
2023-02-18T00:44:24.585Z,88.89
2023-02-18T00:45:28.789Z,88.86
2023-02-18T00:46:32.998Z,88.91
2023-02-18T00:47:37.205Z,88.92
2023-02-18T00:48:41.494Z,88.92
2023-02-18T00:49:45.775Z,88.94
2023-02-18T00:50:50.022Z,88.96
2023-02-18T00:51:54.170Z,88.91
2023-02-18T00:52:58.369Z,88.85
2023-02-18T00:54:02.545Z,88.86
2023-02-18T00:55:06.727Z,88.89
2023-02-18T00:56:11.230Z,88.85
2023-02-18T00:57:15.277Z,88.88
2023-02-18T00:58:33.478Z,88.90
2023-02-18T00:59:36.527Z,88.93
2023-02-18T01:00:40.642Z,88.93
2023-02-18T01:01:44.905Z,89.02
2023-02-18T01:02:49.081Z,89.07
2023-02-18T01:03:53.365Z,89.10
2023-02-18T01:04:57.600Z,89.14
2023-02-18T01:06:01.768Z,89.18
2023-02-18T01:07:05.978Z,89.22
2023-02-18T01:08:13.178Z,89.22
2023-02-18T01:09:16.450Z,89.31
2023-02-18T01:10:20.713Z,89.27
2023-02-18T01:11:24.929Z,89.25
2023-02-18T01:12:29.203Z,89.22
2023-02-18T01:13:33.523Z,89.22
2023-02-18T01:14:37.699Z,89.19
2023-02-18T01:15:42.020Z,89.14
2023-02-18T01:16:46.259Z,89.20
2023-02-18T01:17:50.517Z,89.17
2023-02-18T01:18:54.742Z,89.13
2023-02-18T01:19:59.016Z,89.13
2023-02-18T01:21:03.155Z,89.17
2023-02-18T01:22:07.375Z,89.21
2023-02-18T01:23:11.671Z,89.22
2023-02-18T01:24:15.798Z,89.25
2023-02-18T01:25:20.110Z,89.30
2023-02-18T01:26:24.360Z,89.36
2023-02-18T01:27:28.636Z,89.44
2023-02-18T01:28:32.830Z,89.49
2023-02-18T01:29:37.152Z,89.51
2023-02-18T01:30:41.336Z,89.45
2023-02-18T01:31:45.796Z,89.55
2023-02-18T01:32:49.605Z,89.41
2023-02-18T01:33:53.907Z,89.41
2023-02-18T01:34:58.125Z,89.43
2023-02-18T01:36:02.411Z,89.53
2023-02-18T01:37:06.630Z,89.48
2023-02-18T01:38:10.870Z,89.50
2023-02-18T01:39:15.004Z,89.53
2023-02-18T01:40:19.206Z,89.55
2023-02-18T01:41:23.404Z,89.58
2023-02-18T01:42:27.650Z,89.57
2023-02-18T01:43:31.844Z,89.51
2023-02-18T01:44:36.133Z,89.48
2023-02-18T01:45:40.297Z,89.44
2023-02-18T01:46:44.594Z,89.45
2023-02-18T01:47:48.797Z,89.36
2023-02-18T01:48:52.956Z,89.36
2023-02-18T01:49:57.161Z,89.32
2023-02-18T01:51:01.343Z,89.42
2023-02-18T01:52:05.634Z,89.34
2023-02-18T01:53:09.795Z,89.36
2023-02-18T01:54:14.063Z,89.39
2023-02-18T01:55:18.211Z,89.45
2023-02-18T01:56:22.427Z,89.50
2023-02-18T01:57:26.673Z,89.50
2023-02-18T01:58:30.880Z,89.53
2023-02-18T01:59:35.190Z,89.56
2023-02-18T02:00:39.409Z,89.61
2023-02-18T02:01:43.727Z,89.63
2023-02-18T02:04:14.779Z,89.69
2023-02-18T02:05:18.858Z,89.76
2023-02-18T02:06:23.080Z,89.80
2023-02-18T02:07:27.249Z,89.88
2023-02-18T02:08:31.545Z,89.89
2023-02-18T02:09:35.729Z,89.87
2023-02-18T02:10:39.934Z,89.88
2023-02-18T02:11:44.235Z,89.91
2023-02-18T02:12:48.396Z,89.88
2023-02-18T02:13:52.742Z,89.89
2023-02-18T02:14:59.956Z,89.91
2023-02-18T02:16:03.304Z,89.93
2023-02-18T02:17:07.474Z,89.95
2023-02-18T02:18:11.696Z,89.97
2023-02-18T02:19:15.873Z,89.92
2023-02-18T02:20:20.171Z,89.85
2023-02-18T02:21:24.384Z,89.83
2023-02-18T02:22:28.620Z,89.88
2023-02-18T02:23:32.839Z,89.87
2023-02-18T02:24:37.123Z,89.86
2023-02-18T02:25:41.454Z,89.83
2023-02-18T02:26:45.664Z,89.84
2023-02-18T02:27:49.826Z,89.80
2023-02-18T02:28:54.130Z,89.76
2023-02-18T02:29:58.511Z,89.69
2023-02-18T02:31:02.723Z,89.66
2023-02-18T02:32:06.844Z,89.62
2023-02-18T02:33:10.934Z,89.62
2023-02-18T02:34:15.295Z,89.57
2023-02-18T02:35:19.497Z,89.59
2023-02-18T02:36:23.760Z,89.62
2023-02-18T02:37:28.007Z,89.65
2023-02-18T02:38:32.188Z,89.68
2023-02-18T02:39:36.506Z,89.72
2023-02-18T02:40:40.621Z,89.76
2023-02-18T02:41:44.810Z,89.82
2023-02-18T02:42:49.133Z,89.80
2023-02-18T02:43:53.436Z,89.81
2023-02-18T02:44:57.617Z,89.82
2023-02-18T02:46:01.872Z,89.84
2023-02-18T02:47:05.974Z,89.83
2023-02-18T02:48:10.220Z,89.83
2023-02-18T02:49:14.434Z,89.79
2023-02-18T02:50:18.729Z,89.86
2023-02-18T02:51:22.897Z,89.91
2023-02-18T02:52:27.054Z,89.93
2023-02-18T02:53:31.288Z,89.92
2023-02-18T02:54:35.648Z,89.93
2023-02-18T02:55:39.693Z,89.92
2023-02-18T02:56:44.042Z,89.90
2023-02-18T02:57:48.321Z,89.90
2023-02-18T02:58:52.475Z,89.89
2023-02-18T02:59:56.622Z,89.90
2023-02-18T03:01:00.893Z,89.89
2023-02-18T03:02:05.060Z,89.94
2023-02-18T03:03:09.383Z,90.00
2023-02-18T03:04:13.586Z,90.05
2023-02-18T03:05:17.721Z,90.12
2023-02-18T03:06:21.910Z,90.14
2023-02-18T03:07:26.122Z,90.18
2023-02-18T03:08:30.406Z,90.19
2023-02-18T03:09:34.635Z,90.25
2023-02-18T03:10:38.864Z,90.33
2023-02-18T03:11:42.997Z,90.40
2023-02-18T03:12:47.267Z,90.48
2023-02-18T03:13:51.477Z,90.56
2023-02-18T03:14:55.652Z,90.67
2023-02-18T03:15:59.928Z,90.75
2023-02-18T03:17:04.148Z,90.80
2023-02-18T03:18:08.426Z,90.83
2023-02-18T03:19:12.634Z,90.90
2023-02-18T03:20:16.790Z,90.89
2023-02-18T03:21:27.029Z,90.94
2023-02-18T03:22:29.781Z,90.98
2023-02-18T03:23:33.967Z,91.04
2023-02-18T03:24:38.241Z,91.08
2023-02-18T03:25:42.458Z,91.13
2023-02-18T03:26:46.644Z,91.15
2023-02-18T03:27:50.820Z,91.19
2023-02-18T03:28:55.059Z,91.21
2023-02-18T03:29:59.451Z,91.24
2023-02-18T03:31:03.619Z,91.20
2023-02-18T03:32:07.863Z,91.17
2023-02-18T03:33:12.026Z,91.11
2023-02-18T03:34:16.213Z,91.18
2023-02-18T03:35:20.458Z,91.18
2023-02-18T03:36:24.642Z,91.18
2023-02-18T03:37:28.863Z,91.16
2023-02-18T03:38:33.080Z,91.12
2023-02-18T03:39:37.314Z,91.09
2023-02-18T03:40:44.624Z,91.08
2023-02-18T03:41:47.844Z,91.05
2023-02-18T03:42:52.076Z,91.03
2023-02-18T03:43:56.352Z,91.00
2023-02-18T03:45:00.508Z,91.02
2023-02-18T03:46:04.765Z,91.05
2023-02-18T03:47:08.904Z,91.02
2023-02-18T03:48:13.134Z,90.99
2023-02-18T03:49:17.363Z,90.95
2023-02-18T03:50:21.654Z,90.93
2023-02-18T03:51:25.963Z,90.93
2023-02-18T03:52:30.162Z,90.90
2023-02-18T03:53:34.423Z,90.90
2023-02-18T03:54:38.659Z,90.93
2023-02-18T03:55:42.689Z,90.93
2023-02-18T03:56:47.007Z,90.90
2023-02-18T03:57:51.231Z,90.87
2023-02-18T03:58:55.398Z,90.86
2023-02-18T03:59:59.616Z,90.85
2023-02-18T04:01:03.813Z,90.86
2023-02-18T04:02:08.010Z,90.86
2023-02-18T04:03:12.232Z,90.92
2023-02-18T04:04:16.437Z,90.90
2023-02-18T04:05:20.771Z,90.95
2023-02-18T04:06:24.923Z,90.95
2023-02-18T04:07:29.126Z,90.97
2023-02-18T04:08:33.384Z,90.99
2023-02-18T04:09:37.577Z,91.01
2023-02-18T04:10:41.763Z,91.05
2023-02-18T04:11:45.979Z,91.08
2023-02-18T04:12:50.345Z,91.13
2023-02-18T04:13:54.472Z,91.17
2023-02-18T04:14:58.629Z,91.23
2023-02-18T04:16:02.831Z,91.29
2023-02-18T04:17:07.037Z,91.36
2023-02-18T04:18:11.308Z,91.43
2023-02-18T04:19:15.524Z,91.48
2023-02-18T04:20:19.675Z,91.55
2023-02-18T04:21:23.918Z,91.62
2023-02-18T04:22:28.244Z,91.67
2023-02-18T04:23:32.483Z,91.70
2023-02-18T04:24:36.717Z,91.74
2023-02-18T04:25:40.858Z,91.77
2023-02-18T04:26:45.077Z,91.82
2023-02-18T04:27:52.300Z,91.85
2023-02-18T04:28:55.644Z,91.89
2023-02-18T04:29:59.908Z,91.88
2023-02-18T04:31:04.207Z,91.89
2023-02-18T04:32:08.326Z,91.87
2023-02-18T04:33:12.570Z,91.86
2023-02-18T04:34:16.807Z,91.84
2023-02-18T04:35:20.985Z,91.82
2023-02-18T04:36:25.201Z,91.82
2023-02-18T04:37:29.464Z,91.79
2023-02-18T04:38:33.642Z,91.84
2023-02-18T04:39:37.909Z,91.82
2023-02-18T04:40:42.074Z,91.84
2023-02-18T04:41:46.309Z,91.85
2023-02-18T04:42:50.392Z,91.88
2023-02-18T04:43:54.706Z,91.90
2023-02-18T04:44:58.950Z,91.89
2023-02-18T04:46:03.312Z,91.92
2023-02-18T04:47:07.534Z,91.98
2023-02-18T04:48:11.653Z,92.00
2023-02-18T04:49:15.846Z,92.05
2023-02-18T04:50:20.242Z,92.08
2023-02-18T04:51:27.380Z,92.11
2023-02-18T04:52:30.623Z,92.17
2023-02-18T04:53:34.991Z,92.22
2023-02-18T04:54:39.190Z,92.24
2023-02-18T04:55:43.291Z,92.28
2023-02-18T04:56:47.592Z,92.32
2023-02-18T04:57:51.743Z,92.34
2023-02-18T04:58:55.957Z,92.37
2023-02-18T05:00:00.258Z,92.40
2023-02-18T05:01:04.523Z,92.46
2023-02-18T05:02:08.661Z,92.50
2023-02-18T05:03:12.860Z,92.57
2023-02-18T05:04:17.120Z,92.64
2023-02-18T05:05:21.270Z,92.69
2023-02-18T05:06:25.495Z,92.76
2023-02-18T05:07:29.692Z,92.83
2023-02-18T05:08:33.907Z,92.91
2023-02-18T05:09:38.094Z,92.93
2023-02-18T05:10:42.318Z,93.07
2023-02-18T05:11:46.530Z,93.14
2023-02-18T05:12:50.845Z,93.20
2023-02-18T05:13:55.023Z,93.27
2023-02-18T05:14:59.240Z,93.35
2023-02-18T05:16:03.610Z,93.43
2023-02-18T05:17:07.729Z,93.50
2023-02-18T05:18:18.087Z,93.56
2023-02-18T05:19:20.847Z,93.62
2023-02-18T05:20:25.002Z,93.67
2023-02-18T05:21:29.244Z,93.75
2023-02-18T05:22:33.571Z,93.83
2023-02-18T05:23:37.753Z,93.87
2023-02-18T05:24:42.042Z,94.00
2023-02-18T05:25:46.172Z,93.98
2023-02-18T05:26:50.460Z,94.07
2023-02-18T05:27:54.667Z,94.13
2023-02-18T05:28:58.800Z,94.23
2023-02-18T05:30:03.072Z,94.33
2023-02-18T05:31:07.397Z,94.39
2023-02-18T05:32:11.522Z,94.48
2023-02-18T05:33:15.727Z,94.55
2023-02-18T05:34:20.065Z,94.62
2023-02-18T05:35:24.188Z,94.70
2023-02-18T05:36:28.491Z,94.83
2023-02-18T05:37:32.653Z,94.95
2023-02-18T05:38:36.933Z,95.04
2023-02-18T05:39:41.225Z,95.14
2023-02-18T05:40:45.454Z,95.22
2023-02-18T05:41:49.686Z,95.28
2023-02-18T05:42:53.862Z,95.34
2023-02-18T05:43:58.170Z,95.42
2023-02-18T05:45:02.340Z,95.47
2023-02-18T05:46:06.996Z,95.52
2023-02-18T05:47:11.639Z,95.60
2023-02-18T05:48:14.987Z,95.63
2023-02-18T05:49:19.227Z,95.69
2023-02-18T05:50:23.460Z,95.72
2023-02-18T05:51:27.665Z,95.77
2023-02-18T05:52:31.815Z,95.87
2023-02-18T05:53:36.153Z,95.95
2023-02-18T05:54:40.326Z,96.04
2023-02-18T05:55:44.514Z,96.14
2023-02-18T05:56:48.839Z,96.31
2023-02-18T05:57:53.033Z,96.36
2023-02-18T05:58:57.245Z,96.42
2023-02-18T06:00:01.497Z,96.46
2023-02-18T06:01:05.704Z,96.49
2023-02-18T06:02:09.954Z,96.51
2023-02-18T06:03:14.130Z,96.60
2023-02-18T06:04:18.424Z,96.69
2023-02-18T06:05:22.650Z,96.79
2023-02-18T06:06:26.966Z,96.76
2023-02-18T06:07:31.146Z,96.79
2023-02-18T06:08:35.298Z,96.77
2023-02-18T06:09:39.526Z,96.80
2023-02-18T06:10:43.777Z,96.90
2023-02-18T06:11:48.004Z,97.00
2023-02-18T06:12:52.318Z,97.05
2023-02-18T06:13:56.560Z,97.11
2023-02-18T06:15:14.792Z,97.24
2023-02-18T06:16:18.045Z,97.38
2023-02-18T06:17:22.158Z,97.50
2023-02-18T06:18:26.347Z,97.56
2023-02-18T06:19:30.506Z,97.64
2023-02-18T06:20:34.784Z,97.76
2023-02-18T06:21:38.932Z,97.80
2023-02-18T06:22:43.223Z,97.93
2023-02-18T06:23:47.389Z,97.95
2023-02-18T06:24:51.637Z,98.01
2023-02-18T06:25:55.925Z,98.06
2023-02-18T06:27:00.117Z,98.10
2023-02-18T06:28:04.461Z,98.15
2023-02-18T06:29:08.595Z,98.17
2023-02-18T06:30:12.871Z,98.18
2023-02-18T06:31:17.159Z,98.19
2023-02-18T06:32:21.550Z,98.21
2023-02-18T06:33:25.506Z,98.26
2023-02-18T06:34:29.698Z,98.30
2023-02-18T06:35:33.934Z,98.30
2023-02-18T06:36:38.209Z,98.36
2023-02-18T06:37:42.445Z,98.41
2023-02-18T06:38:46.618Z,98.52
2023-02-18T06:39:50.898Z,98.57
2023-02-18T06:41:01.174Z,98.58
2023-02-18T06:42:03.989Z,98.64
2023-02-18T06:43:08.189Z,98.69
2023-02-18T06:44:12.358Z,98.72
2023-02-18T06:45:16.584Z,98.74
2023-02-18T06:46:20.916Z,98.76
2023-02-18T06:47:25.005Z,98.78
2023-02-18T06:48:29.314Z,98.81
2023-02-18T06:49:33.584Z,98.82
2023-02-18T06:50:37.729Z,98.82
2023-02-18T06:51:42.000Z,98.81
2023-02-18T06:52:46.184Z,98.83
2023-02-18T06:53:50.377Z,98.83
2023-02-18T06:54:54.581Z,98.81
2023-02-18T06:55:58.794Z,98.80
2023-02-18T06:57:03.007Z,98.78
2023-02-18T06:58:07.201Z,98.76
2023-02-18T06:59:11.376Z,98.72
2023-02-18T07:00:15.676Z,98.69
2023-02-18T07:01:19.948Z,98.64
2023-02-18T07:02:24.105Z,98.59
2023-02-18T07:03:28.416Z,98.54
2023-02-18T07:04:32.613Z,98.48
2023-02-18T07:05:36.785Z,98.42
2023-02-18T07:06:40.989Z,98.31
2023-02-18T07:07:45.159Z,98.27
2023-02-18T07:08:52.409Z,98.19
2023-02-18T07:09:55.732Z,98.08
2023-02-18T07:10:59.956Z,98.02
2023-02-18T07:12:04.115Z,97.90
2023-02-18T07:13:08.306Z,97.82
2023-02-18T07:14:12.463Z,97.72
2023-02-18T07:15:16.724Z,97.61
2023-02-18T07:16:21.025Z,97.43
2023-02-18T07:17:25.204Z,97.40
2023-02-18T07:18:29.453Z,97.28
2023-02-18T07:19:33.674Z,97.18
2023-02-18T07:20:37.872Z,97.05
2023-02-18T07:21:42.198Z,96.89
2023-02-18T07:22:46.432Z,96.81
2023-02-18T07:23:50.656Z,96.60
2023-02-18T07:24:54.828Z,96.53
2023-02-18T07:25:59.116Z,96.38
2023-02-18T07:27:03.356Z,96.22
2023-02-18T07:28:07.588Z,96.05
2023-02-18T07:29:11.753Z,95.90
2023-02-18T07:30:15.997Z,95.81
2023-02-18T07:31:20.274Z,95.61
2023-02-18T07:32:24.387Z,95.49
2023-02-18T07:33:28.635Z,95.38
2023-02-18T07:34:32.898Z,95.29
2023-02-18T07:35:37.076Z,95.16
2023-02-18T07:36:41.284Z,95.03
2023-02-18T07:37:45.488Z,94.96
2023-02-18T07:38:49.662Z,94.91
2023-02-18T07:39:53.827Z,94.88
2023-02-18T07:40:58.070Z,94.88
2023-02-18T07:42:02.269Z,94.76
2023-02-18T07:43:07.506Z,94.68
2023-02-18T07:44:11.362Z,94.69
2023-02-18T07:45:15.623Z,94.68
2023-02-18T07:46:19.766Z,94.70
2023-02-18T07:47:23.990Z,94.70
2023-02-18T07:48:28.200Z,94.74
2023-02-18T07:49:32.396Z,94.80
2023-02-18T07:50:36.666Z,94.82
2023-02-18T07:51:40.864Z,94.90
2023-02-18T07:52:45.060Z,94.94
2023-02-18T07:53:49.407Z,95.00
2023-02-18T07:54:53.552Z,95.08
2023-02-18T07:55:57.863Z,95.13
2023-02-18T07:57:02.024Z,95.17
2023-02-18T07:58:06.253Z,95.19
2023-02-18T07:59:10.447Z,95.19
2023-02-18T08:00:14.642Z,95.20
2023-02-18T08:01:18.996Z,95.15
2023-02-18T08:02:23.240Z,95.10
2023-02-18T08:03:27.376Z,95.04
2023-02-18T08:04:31.659Z,95.02
2023-02-18T08:05:35.825Z,95.02
2023-02-18T08:06:40.005Z,95.06
2023-02-18T08:07:44.224Z,95.05
2023-02-18T08:08:48.483Z,95.11
2023-02-18T08:09:52.703Z,95.16
2023-02-18T08:10:57.286Z,95.23
2023-02-18T08:12:01.108Z,95.16
2023-02-18T08:13:05.369Z,95.15
2023-02-18T08:14:09.613Z,95.16
2023-02-18T08:15:13.760Z,95.17
2023-02-18T08:16:19.077Z,95.20
2023-02-18T08:17:22.750Z,95.24
2023-02-18T08:18:27.016Z,95.26
2023-02-18T08:19:31.170Z,95.25
2023-02-18T08:20:35.348Z,95.32
2023-02-18T08:21:39.603Z,95.34
2023-02-18T08:22:43.912Z,95.36
2023-02-18T08:23:48.076Z,95.38
2023-02-18T08:24:52.374Z,95.39
2023-02-18T08:25:56.528Z,95.42
2023-02-18T08:27:01.700Z,95.47
2023-02-18T08:28:04.891Z,95.52
2023-02-18T08:29:09.115Z,95.54
2023-02-18T08:30:13.292Z,95.54
2023-02-18T08:31:31.735Z,95.56
2023-02-18T08:32:34.747Z,95.55
2023-02-18T08:33:38.995Z,95.58
2023-02-18T08:34:43.172Z,95.62
2023-02-18T08:36:01.422Z,95.64
2023-02-18T08:37:04.216Z,95.64
2023-02-18T08:38:08.331Z,95.63
2023-02-18T08:39:12.552Z,95.66
2023-02-18T08:40:16.584Z,95.72
2023-02-18T08:41:20.866Z,95.72
2023-02-18T08:42:25.016Z,95.74
2023-02-18T08:43:29.245Z,95.76
2023-02-18T08:44:33.596Z,95.72
2023-02-18T08:45:37.763Z,95.71
2023-02-18T08:46:42.181Z,95.67
2023-02-18T08:48:16.116Z,95.73
2023-02-18T08:48:50.391Z,95.74
2023-02-18T08:49:57.659Z,95.76
2023-02-18T08:51:08.039Z,95.75
2023-02-18T08:52:09.845Z,95.80
2023-02-18T08:53:13.985Z,95.86
2023-02-18T08:54:18.200Z,95.91
2023-02-18T08:55:22.347Z,95.98
2023-02-18T08:56:26.642Z,96.05
2023-02-18T08:57:30.899Z,96.13
2023-02-18T08:58:35.165Z,96.21
2023-02-18T08:59:39.432Z,96.31
2023-02-18T09:00:43.655Z,96.42
2023-02-18T09:01:47.906Z,96.54
2023-02-18T09:02:52.008Z,96.63
2023-02-18T09:03:56.377Z,96.71
2023-02-18T09:05:00.455Z,96.77
2023-02-18T09:06:04.661Z,96.83
2023-02-18T09:07:08.891Z,96.91
2023-02-18T09:08:13.162Z,97.02
2023-02-18T09:09:17.380Z,97.21
2023-02-18T09:10:21.563Z,97.21
2023-02-18T09:11:25.792Z,97.28
2023-02-18T09:12:29.984Z,97.36
2023-02-18T09:13:34.183Z,97.40
2023-02-18T09:14:38.455Z,97.45
2023-02-18T09:15:42.769Z,97.50
2023-02-18T09:16:46.924Z,97.53
2023-02-18T09:17:51.216Z,97.61
2023-02-18T09:18:55.376Z,97.68
2023-02-18T09:19:59.606Z,97.73
2023-02-18T09:21:03.816Z,97.79
2023-02-18T09:22:08.099Z,97.84
2023-02-18T09:23:12.318Z,97.92
2023-02-18T09:24:16.534Z,98.00
2023-02-18T09:25:20.797Z,98.10
2023-02-18T09:26:25.058Z,98.23
2023-02-18T09:27:29.215Z,98.36
2023-02-18T09:28:33.459Z,98.48
2023-02-18T09:29:37.672Z,98.59
2023-02-18T09:30:42.071Z,98.74
2023-02-18T09:31:46.289Z,99.02
2023-02-18T09:32:50.395Z,99.14
2023-02-18T09:33:54.653Z,99.24
2023-02-18T09:34:58.853Z,99.37
2023-02-18T09:36:03.076Z,99.51
2023-02-18T09:37:07.243Z,99.67
2023-02-18T09:38:11.515Z,99.87
2023-02-18T09:39:15.690Z,99.93
2023-02-18T09:40:19.882Z,100.00
2023-02-18T09:41:24.174Z,100.00
2023-02-18T09:42:28.362Z,100.00
2023-02-18T09:43:32.568Z,100.00
2023-02-18T09:44:36.771Z,100.00
2023-02-18T09:45:40.979Z,100.00
2023-02-18T09:46:45.208Z,100.00
2023-02-18T09:47:49.403Z,100.00
2023-02-18T09:48:53.676Z,100.00
2023-02-18T09:49:57.896Z,100.00
2023-02-18T09:51:02.160Z,100.00
2023-02-18T09:52:06.363Z,100.00
2023-02-18T09:53:13.576Z,100.00
2023-02-18T09:54:16.852Z,100.00
2023-02-18T09:55:21.097Z,100.00
2023-02-18T09:56:25.165Z,100.00
2023-02-18T09:58:56.226Z,100.00
2023-02-18T10:00:00.489Z,100.00
2023-02-18T10:01:04.627Z,100.00
2023-02-18T10:02:08.848Z,100.00
2023-02-18T10:03:13.116Z,100.00
2023-02-18T10:04:17.391Z,100.00
2023-02-18T10:05:21.568Z,100.00
2023-02-18T10:06:25.801Z,100.00
2023-02-18T10:07:29.995Z,100.00
2023-02-18T10:08:34.244Z,100.00
2023-02-18T10:09:41.711Z,100.00
2023-02-18T10:10:42.652Z,100.00
2023-02-18T10:11:46.900Z,100.00
2023-02-18T10:12:51.059Z,100.00
2023-02-18T10:13:55.299Z,100.00
2023-02-18T10:14:59.535Z,100.00
2023-02-18T10:16:03.774Z,100.00
2023-02-18T10:17:07.841Z,100.00
2023-02-18T10:18:12.077Z,100.00
2023-02-18T10:19:16.271Z,100.00
2023-02-18T10:20:20.678Z,100.00
2023-02-18T10:21:24.803Z,100.00
2023-02-18T10:22:28.976Z,100.00
2023-02-18T10:23:33.226Z,100.00
2023-02-18T10:24:37.432Z,100.00
2023-02-18T10:25:41.662Z,100.00
2023-02-18T10:26:45.870Z,100.00
2023-02-18T10:27:50.076Z,100.00
2023-02-18T10:28:54.394Z,100.00
2023-02-18T10:29:58.590Z,100.00
2023-02-18T10:31:02.856Z,100.00
2023-02-18T10:32:07.282Z,100.00
2023-02-18T10:33:11.244Z,100.00
2023-02-18T10:34:15.381Z,100.00
2023-02-18T10:35:19.729Z,100.00
2023-02-18T10:36:23.881Z,100.00
2023-02-18T10:37:28.087Z,100.00
2023-02-18T10:38:32.410Z,100.00
2023-02-18T10:39:36.635Z,100.00
2023-02-18T10:40:40.723Z,100.00
2023-02-18T10:41:45.007Z,100.00
2023-02-18T10:42:49.244Z,100.00
2023-02-18T10:43:53.541Z,100.00
2023-02-18T10:44:57.744Z,100.00
2023-02-18T10:46:01.997Z,100.00
2023-02-18T10:47:06.147Z,100.00
2023-02-18T10:48:10.445Z,100.00
2023-02-18T10:49:14.588Z,100.00
2023-02-18T10:50:18.902Z,100.00
2023-02-18T10:51:23.028Z,100.00
2023-02-18T10:52:27.333Z,100.00
2023-02-18T10:53:31.481Z,100.00
2023-02-18T10:54:35.654Z,100.00
2023-02-18T10:55:39.870Z,100.00
2023-02-18T10:56:44.099Z,100.00
2023-02-18T10:57:51.325Z,100.00
2023-02-18T10:58:54.590Z,100.00
2023-02-18T10:59:58.800Z,100.00
2023-02-18T11:01:02.992Z,100.00
2023-02-18T11:02:07.244Z,100.00
2023-02-18T11:03:11.439Z,100.00
2023-02-18T11:04:15.644Z,100.00
2023-02-18T11:05:19.804Z,100.00
2023-02-18T11:06:24.018Z,100.00
2023-02-18T11:07:28.200Z,100.00
2023-02-18T11:08:32.423Z,100.00
2023-02-18T11:09:36.636Z,100.00
2023-02-18T11:10:40.930Z,100.00
2023-02-18T11:11:47.983Z,100.00
2023-02-18T11:12:49.169Z,100.00
2023-02-18T11:13:53.383Z,100.00
2023-02-18T11:14:57.553Z,100.00
2023-02-18T11:16:01.903Z,100.00
2023-02-18T11:17:06.060Z,100.00
2023-02-18T11:18:10.251Z,100.00
2023-02-18T11:19:14.440Z,100.00
2023-02-18T11:20:18.768Z,100.00
2023-02-18T11:21:22.937Z,100.00
2023-02-18T11:22:27.152Z,100.00
2023-02-18T11:23:31.344Z,100.00
2023-02-18T11:24:35.554Z,100.00
2023-02-18T11:25:39.871Z,100.00
2023-02-18T11:26:44.108Z,100.00
2023-02-18T11:27:48.408Z,100.00
2023-02-18T11:28:52.586Z,100.00
2023-02-18T11:29:56.827Z,100.00
2023-02-18T11:31:01.163Z,100.00
2023-02-18T11:32:05.523Z,100.00
2023-02-18T11:33:09.586Z,100.00
2023-02-18T11:34:13.819Z,100.00
2023-02-18T11:35:17.967Z,100.00
2023-02-18T11:36:22.214Z,100.00
2023-02-18T11:37:26.357Z,100.00
2023-02-18T11:38:30.700Z,100.00
2023-02-18T11:39:34.847Z,100.00
2023-02-18T11:40:39.168Z,100.00
2023-02-18T11:41:43.183Z,100.00
2023-02-18T11:42:47.530Z,100.00
2023-02-18T11:43:51.707Z,100.00
2023-02-18T11:44:55.900Z,100.00
2023-02-18T11:46:00.127Z,100.00
2023-02-18T11:47:04.326Z,100.00
2023-02-18T11:48:08.524Z,100.00
2023-02-18T11:49:12.929Z,100.00
2023-02-18T11:50:17.059Z,100.00
2023-02-18T11:51:21.244Z,100.00
2023-02-18T11:52:25.504Z,100.00
2023-02-18T11:53:29.675Z,100.00
2023-02-18T11:54:33.910Z,100.00
2023-02-18T11:55:38.107Z,100.00
2023-02-18T11:56:42.338Z,100.00
2023-02-18T11:57:46.606Z,100.00
2023-02-18T11:58:50.763Z,100.00
2023-02-18T11:59:55.034Z,100.00
2023-02-18T12:00:59.249Z,100.00
2023-02-18T12:02:03.548Z,100.00
2023-02-18T12:03:07.651Z,100.00
2023-02-18T12:04:11.837Z,100.00
2023-02-18T12:05:16.110Z,100.00
2023-02-18T12:06:20.355Z,100.00
2023-02-18T12:07:24.528Z,100.00
2023-02-18T12:08:28.817Z,100.00
2023-02-18T12:09:33.112Z,100.00
2023-02-18T12:10:37.342Z,100.00
2023-02-18T12:11:41.602Z,100.00
2023-02-18T12:12:45.790Z,100.00
2023-02-18T12:13:50.006Z,100.00
2023-02-18T12:14:54.152Z,100.00
2023-02-18T12:15:58.448Z,100.00
2023-02-18T12:17:02.615Z,100.00
2023-02-18T12:18:06.824Z,100.00
2023-02-18T12:19:11.086Z,100.00
2023-02-18T12:20:15.323Z,100.00
2023-02-18T12:21:19.533Z,100.00
2023-02-18T12:22:23.748Z,100.00
2023-02-18T12:23:28.017Z,100.00
2023-02-18T12:24:32.196Z,100.00
2023-02-18T12:25:36.395Z,100.00
2023-02-18T12:26:40.632Z,100.00
2023-02-18T12:27:44.936Z,100.00
2023-02-18T12:28:49.200Z,100.00
2023-02-18T12:29:53.433Z,100.00
2023-02-18T12:30:57.586Z,100.00
2023-02-18T12:32:01.859Z,100.00
2023-02-18T12:33:06.061Z,100.00
2023-02-18T12:34:10.358Z,100.00
2023-02-18T12:35:14.449Z,100.00
2023-02-18T12:36:18.808Z,100.00
2023-02-18T12:37:22.969Z,100.00
2023-02-18T12:38:27.155Z,100.00
2023-02-18T12:39:31.372Z,100.00
2023-02-18T12:40:35.599Z,100.00
2023-02-18T12:41:39.707Z,100.00
2023-02-18T12:42:44.002Z,100.00
2023-02-18T12:43:48.174Z,100.00
2023-02-18T12:44:52.401Z,100.00
2023-02-18T12:45:56.622Z,100.00
2023-02-18T12:47:01.034Z,100.00
2023-02-18T12:48:05.156Z,100.00
2023-02-18T12:49:09.319Z,100.00
2023-02-18T12:50:13.491Z,100.00
2023-02-18T12:51:17.730Z,100.00
2023-02-18T12:52:22.012Z,100.00
2023-02-18T12:53:26.187Z,100.00
2023-02-18T12:54:30.387Z,100.00
2023-02-18T12:55:34.535Z,100.00
2023-02-18T12:56:38.738Z,100.00
2023-02-18T12:57:42.908Z,100.00
2023-02-18T12:58:47.099Z,100.00
2023-02-18T12:59:51.283Z,100.00
2023-02-18T13:00:55.513Z,100.00
2023-02-18T13:01:59.695Z,100.00
2023-02-18T13:03:03.900Z,100.00
2023-02-18T13:04:08.123Z,100.00
2023-02-18T13:05:12.347Z,100.00
2023-02-18T13:06:16.514Z,100.00
2023-02-18T13:07:20.745Z,100.00
2023-02-18T13:08:27.969Z,100.00
2023-02-18T13:09:31.201Z,100.00
2023-02-18T13:10:35.396Z,100.00
2023-02-18T13:11:39.684Z,100.00
2023-02-18T13:12:46.914Z,100.00
2023-02-18T13:13:51.271Z,100.00
2023-02-18T13:14:55.180Z,100.00
2023-02-18T13:15:59.232Z,100.00
2023-02-18T13:17:03.512Z,100.00
2023-02-18T13:18:21.799Z,100.00
2023-02-18T13:19:24.769Z,100.00
2023-02-18T13:20:28.882Z,100.00
2023-02-18T13:21:33.067Z,100.00
2023-02-18T13:22:37.279Z,100.00
2023-02-18T13:23:41.505Z,100.00
2023-02-18T13:24:45.702Z,100.00
2023-02-18T13:25:49.910Z,100.00
2023-02-18T13:26:54.080Z,100.00
2023-02-18T13:27:58.342Z,100.00
2023-02-18T13:29:02.506Z,100.00
2023-02-18T13:30:06.758Z,100.00
2023-02-18T13:31:11.593Z,100.00
2023-02-18T13:32:15.121Z,100.00
2023-02-18T13:33:19.252Z,100.00
2023-02-18T13:34:23.497Z,100.00
2023-02-18T13:35:27.701Z,100.00
2023-02-18T13:36:31.784Z,100.00
2023-02-18T13:37:36.019Z,100.00
2023-02-18T13:38:40.243Z,100.00
2023-02-18T13:39:44.350Z,100.00
2023-02-18T13:40:48.686Z,100.00
2023-02-18T13:41:52.821Z,100.00
2023-02-18T13:42:57.016Z,100.00
2023-02-18T13:44:01.194Z,100.00